sensor_id;sensor_type;location;lat;lon;timestamp;pressure;altitude;pressure_sealevel;temperature;humidity
83492;BME280;73661;56.120;12.302;2024-03-22T00:01:49;101416.16;;;10.68;60.80
83492;BME280;73661;56.120;12.302;2024-03-22T00:04:16;101416.59;;;10.92;60.66
83492;BME280;73661;56.120;12.302;2024-03-22T00:06:44;101411.81;;;11.23;58.53
83492;BME280;73661;56.120;12.302;2024-03-22T00:09:10;101403.00;;;11.14;59.62
83492;BME280;73661;56.120;12.302;2024-03-22T00:11:37;101397.28;;;11.40;59.03
83492;BME280;73661;56.120;12.302;2024-03-22T00:14:03;101395.84;;;11.03;60.11
83492;BME280;73661;56.120;12.302;2024-03-22T00:16:29;101397.47;;;10.96;60.51
83492;BME280;73661;56.120;12.302;2024-03-22T00:18:54;101386.91;;;10.87;60.85
83492;BME280;73661;56.120;12.302;2024-03-22T00:21:21;101377.25;;;10.30;62.73
83492;BME280;73661;56.120;12.302;2024-03-22T00:23:47;101375.56;;;10.35;62.14
83492;BME280;73661;56.120;12.302;2024-03-22T00:26:13;101381.56;;;10.81;61.31
83492;BME280;73661;56.120;12.302;2024-03-22T00:28:39;101378.38;;;10.00;63.12
83492;BME280;73661;56.120;12.302;2024-03-22T00:31:05;101388.50;;;10.77;62.45
83492;BME280;73661;56.120;12.302;2024-03-22T00:33:31;101383.84;;;10.59;62.08
83492;BME280;73661;56.120;12.302;2024-03-22T00:35:57;101369.91;;;10.57;62.17
83492;BME280;73661;56.120;12.302;2024-03-22T00:38:23;101359.81;;;10.82;62.14
83492;BME280;73661;56.120;12.302;2024-03-22T00:40:49;101341.84;;;10.46;62.45
83492;BME280;73661;56.120;12.302;2024-03-22T00:43:14;101331.56;;;10.56;62.72
83492;BME280;73661;56.120;12.302;2024-03-22T00:45:40;101333.16;;;11.03;61.94
83492;BME280;73661;56.120;12.302;2024-03-22T00:48:06;101331.16;;;10.85;61.82
83492;BME280;73661;56.120;12.302;2024-03-22T00:50:33;101325.00;;;10.83;62.41
83492;BME280;73661;56.120;12.302;2024-03-22T00:52:58;101313.38;;;10.62;62.77
83492;BME280;73661;56.120;12.302;2024-03-22T00:55:24;101309.88;;;10.60;62.71
83492;BME280;73661;56.120;12.302;2024-03-22T00:57:51;101291.13;;;10.84;62.66
83492;BME280;73661;56.120;12.302;2024-03-22T01:00:17;101276.47;;;10.36;63.43
83492;BME280;73661;56.120;12.302;2024-03-22T01:02:43;101260.59;;;10.24;63.29
83492;BME280;73661;56.120;12.302;2024-03-22T01:05:09;101266.28;;;10.55;63.75
83492;BME280;73661;56.120;12.302;2024-03-22T01:07:38;101264.31;;;10.39;63.17
83492;BME280;73661;56.120;12.302;2024-03-22T01:10:04;101267.34;;;10.66;63.77
83492;BME280;73661;56.120;12.302;2024-03-22T01:12:30;101261.53;;;10.29;64.83
83492;BME280;73661;56.120;12.302;2024-03-22T01:14:57;101263.94;;;10.70;62.86
83492;BME280;73661;56.120;12.302;2024-03-22T01:17:23;101261.16;;;10.61;64.01
83492;BME280;73661;56.120;12.302;2024-03-22T01:19:49;101259.44;;;10.63;63.61
83492;BME280;73661;56.120;12.302;2024-03-22T01:22:16;101259.09;;;10.40;64.25
83492;BME280;73661;56.120;12.302;2024-03-22T01:24:43;101272.88;;;10.87;63.50
83492;BME280;73661;56.120;12.302;2024-03-22T01:27:09;101263.47;;;11.03;62.51
83492;BME280;73661;56.120;12.302;2024-03-22T01:29:34;101250.22;;;10.85;63.29
83492;BME280;73661;56.120;12.302;2024-03-22T01:32:02;101240.38;;;10.67;64.28
83492;BME280;73661;56.120;12.302;2024-03-22T01:34:28;101228.47;;;10.89;63.46
83492;BME280;73661;56.120;12.302;2024-03-22T01:36:53;101229.72;;;10.53;64.37
83492;BME280;73661;56.120;12.302;2024-03-22T01:39:20;101218.59;;;11.35;62.60
83492;BME280;73661;56.120;12.302;2024-03-22T01:41:50;101216.94;;;11.43;61.97
83492;BME280;73661;56.120;12.302;2024-03-22T01:44:16;101216.47;;;11.03;62.35
83492;BME280;73661;56.120;12.302;2024-03-22T01:46:43;101205.53;;;11.36;62.35
83492;BME280;73661;56.120;12.302;2024-03-22T01:49:12;101204.50;;;11.21;62.86
83492;BME280;73661;56.120;12.302;2024-03-22T01:51:42;101193.59;;;11.63;61.85
83492;BME280;73661;56.120;12.302;2024-03-22T01:54:09;101195.53;;;10.97;63.86
83492;BME280;73661;56.120;12.302;2024-03-22T01:56:39;101185.41;;;11.29;63.42
83492;BME280;73661;56.120;12.302;2024-03-22T01:59:06;101185.31;;;11.18;63.02
83492;BME280;73661;56.120;12.302;2024-03-22T02:01:33;101170.50;;;11.19;63.69
83492;BME280;73661;56.120;12.302;2024-03-22T02:04:00;101164.69;;;11.46;62.61
83492;BME280;73661;56.120;12.302;2024-03-22T02:06:25;101146.91;;;11.11;63.71
83492;BME280;73661;56.120;12.302;2024-03-22T02:08:51;101141.19;;;11.46;63.36
83492;BME280;73661;56.120;12.302;2024-03-22T02:11:17;101137.22;;;11.03;64.30
83492;BME280;73661;56.120;12.302;2024-03-22T02:13:44;101131.13;;;11.01;64.71
83492;BME280;73661;56.120;12.302;2024-03-22T02:16:10;101128.91;;;11.37;63.41
83492;BME280;73661;56.120;12.302;2024-03-22T02:18:35;101124.31;;;11.16;63.82
83492;BME280;73661;56.120;12.302;2024-03-22T02:21:01;101116.13;;;11.72;62.51
83492;BME280;73661;56.120;12.302;2024-03-22T02:23:34;101114.22;;;11.56;63.29
83492;BME280;73661;56.120;12.302;2024-03-22T02:26:02;101098.28;;;11.27;63.63
83492;BME280;73661;56.120;12.302;2024-03-22T02:28:28;101098.66;;;10.79;65.32
83492;BME280;73661;56.120;12.302;2024-03-22T02:30:54;101102.06;;;11.58;63.69
83492;BME280;73661;56.120;12.302;2024-03-22T02:33:19;101083.72;;;11.52;63.95
83492;BME280;73661;56.120;12.302;2024-03-22T02:35:49;101079.66;;;11.88;62.42
83492;BME280;73661;56.120;12.302;2024-03-22T02:38:15;101080.06;;;11.35;64.10
83492;BME280;73661;56.120;12.302;2024-03-22T02:40:43;101074.03;;;11.39;64.01
83492;BME280;73661;56.120;12.302;2024-03-22T02:43:09;101071.69;;;10.81;65.39
83492;BME280;73661;56.120;12.302;2024-03-22T02:45:35;101069.78;;;11.56;64.40
83492;BME280;73661;56.120;12.302;2024-03-22T02:48:01;101081.81;;;11.31;64.81
83492;BME280;73661;56.120;12.302;2024-03-22T02:50:26;101078.59;;;11.69;63.72
83492;BME280;73661;56.120;12.302;2024-03-22T02:52:52;101067.13;;;11.50;63.82
83492;BME280;73661;56.120;12.302;2024-03-22T02:55:18;101066.81;;;11.16;65.22
83492;BME280;73661;56.120;12.302;2024-03-22T02:57:44;101053.34;;;10.74;66.27
83492;BME280;73661;56.120;12.302;2024-03-22T03:00:10;101050.66;;;11.60;64.53
83492;BME280;73661;56.120;12.302;2024-03-22T03:02:35;101056.72;;;11.56;64.04
83492;BME280;73661;56.120;12.302;2024-03-22T03:05:02;101039.28;;;10.62;66.51
83492;BME280;73661;56.120;12.302;2024-03-22T03:07:27;101036.69;;;11.57;63.89
83492;BME280;73661;56.120;12.302;2024-03-22T03:09:53;101036.72;;;11.60;63.96
83492;BME280;73661;56.120;12.302;2024-03-22T03:12:19;101033.28;;;11.65;63.74
83492;BME280;73661;56.120;12.302;2024-03-22T03:14:45;101020.94;;;11.44;64.45
83492;BME280;73661;56.120;12.302;2024-03-22T03:17:11;101015.47;;;11.17;64.95
83492;BME280;73661;56.120;12.302;2024-03-22T03:19:37;101026.88;;;11.27;65.05
83492;BME280;73661;56.120;12.302;2024-03-22T03:22:03;101011.72;;;12.03;64.08
83492;BME280;73661;56.120;12.302;2024-03-22T03:24:28;101021.28;;;11.95;63.33
83492;BME280;73661;56.120;12.302;2024-03-22T03:26:54;101024.25;;;11.25;64.57
83492;BME280;73661;56.120;12.302;2024-03-22T03:29:20;101000.50;;;10.98;65.88
83492;BME280;73661;56.120;12.302;2024-03-22T03:31:46;101011.50;;;11.66;64.65
83492;BME280;73661;56.120;12.302;2024-03-22T03:34:11;100998.22;;;11.42;64.76
83492;BME280;73661;56.120;12.302;2024-03-22T03:36:37;100996.00;;;11.91;64.77
83492;BME280;73661;56.120;12.302;2024-03-22T03:39:03;100991.41;;;11.58;64.63
83492;BME280;73661;56.120;12.302;2024-03-22T03:41:32;100988.75;;;11.53;64.52
83492;BME280;73661;56.120;12.302;2024-03-22T03:43:58;100979.06;;;11.37;65.31
83492;BME280;73661;56.120;12.302;2024-03-22T03:46:23;100983.56;;;11.62;64.50
83492;BME280;73661;56.120;12.302;2024-03-22T03:48:49;100975.78;;;11.71;64.13
83492;BME280;73661;56.120;12.302;2024-03-22T03:51:15;100976.81;;;11.92;63.51
83492;BME280;73661;56.120;12.302;2024-03-22T03:53:41;100972.00;;;11.24;65.37
83492;BME280;73661;56.120;12.302;2024-03-22T03:56:06;100968.81;;;11.77;63.92
83492;BME280;73661;56.120;12.302;2024-03-22T03:58:32;100960.22;;;11.96;62.67
83492;BME280;73661;56.120;12.302;2024-03-22T04:00:58;100967.91;;;11.70;63.76
83492;BME280;73661;56.120;12.302;2024-03-22T04:03:23;100967.09;;;11.79;64.08
83492;BME280;73661;56.120;12.302;2024-03-22T04:06:01;100957.44;;;11.68;64.38
83492;BME280;73661;56.120;12.302;2024-03-22T04:08:29;100957.34;;;11.50;64.31
83492;BME280;73661;56.120;12.302;2024-03-22T04:10:56;100946.00;;;11.43;64.82
83492;BME280;73661;56.120;12.302;2024-03-22T04:13:23;100936.47;;;11.56;64.13
83492;BME280;73661;56.120;12.302;2024-03-22T04:15:49;100947.66;;;11.35;65.43
83492;BME280;73661;56.120;12.302;2024-03-22T04:18:15;100944.34;;;11.58;65.44
83492;BME280;73661;56.120;12.302;2024-03-22T04:20:40;100935.63;;;11.60;65.02
83492;BME280;73661;56.120;12.302;2024-03-22T04:23:06;100931.47;;;11.93;64.17
83492;BME280;73661;56.120;12.302;2024-03-22T04:25:32;100920.81;;;11.59;64.55
83492;BME280;73661;56.120;12.302;2024-03-22T04:27:58;100929.53;;;11.61;65.15
83492;BME280;73661;56.120;12.302;2024-03-22T04:30:23;100920.81;;;11.59;64.61
83492;BME280;73661;56.120;12.302;2024-03-22T04:32:49;100915.59;;;11.65;64.59
83492;BME280;73661;56.120;12.302;2024-03-22T04:35:15;100916.69;;;12.09;63.58
83492;BME280;73661;56.120;12.302;2024-03-22T04:37:40;100922.88;;;12.40;62.73
83492;BME280;73661;56.120;12.302;2024-03-22T04:40:07;100916.38;;;11.48;64.41
83492;BME280;73661;56.120;12.302;2024-03-22T04:42:33;100921.97;;;12.21;63.01
83492;BME280;73661;56.120;12.302;2024-03-22T04:44:59;100918.31;;;11.81;64.58
83492;BME280;73661;56.120;12.302;2024-03-22T04:47:25;100909.41;;;11.48;64.96
83492;BME280;73661;56.120;12.302;2024-03-22T04:49:50;100916.78;;;12.41;62.54
83492;BME280;73661;56.120;12.302;2024-03-22T04:52:16;100911.53;;;12.25;62.84
83492;BME280;73661;56.120;12.302;2024-03-22T04:54:42;100907.13;;;12.15;63.05
83492;BME280;73661;56.120;12.302;2024-03-22T04:57:07;100897.50;;;12.08;62.97
83492;BME280;73661;56.120;12.302;2024-03-22T04:59:33;100900.72;;;11.55;65.21
83492;BME280;73661;56.120;12.302;2024-03-22T05:01:59;100897.44;;;11.87;64.27
83492;BME280;73661;56.120;12.302;2024-03-22T05:04:24;100892.91;;;11.61;65.37
83492;BME280;73661;56.120;12.302;2024-03-22T05:06:51;100891.41;;;12.15;63.49
83492;BME280;73661;56.120;12.302;2024-03-22T05:09:16;100880.72;;;11.62;64.84
83492;BME280;73661;56.120;12.302;2024-03-22T05:11:42;100883.44;;;11.83;64.42
83492;BME280;73661;56.120;12.302;2024-03-22T05:14:08;100874.72;;;11.78;64.75
83492;BME280;73661;56.120;12.302;2024-03-22T05:16:34;100882.66;;;12.10;63.82
83492;BME280;73661;56.120;12.302;2024-03-22T05:19:00;100880.06;;;12.09;63.36
83492;BME280;73661;56.120;12.302;2024-03-22T05:21:26;100878.16;;;11.74;64.19
83492;BME280;73661;56.120;12.302;2024-03-22T05:23:52;100867.81;;;12.02;63.74
83492;BME280;73661;56.120;12.302;2024-03-22T05:26:17;100861.59;;;11.72;64.27
83492;BME280;73661;56.120;12.302;2024-03-22T05:28:46;100869.53;;;11.87;64.04
83492;BME280;73661;56.120;12.302;2024-03-22T05:31:11;100866.09;;;12.10;63.80
83492;BME280;73661;56.120;12.302;2024-03-22T05:33:37;100872.88;;;11.63;64.93
83492;BME280;73661;56.120;12.302;2024-03-22T05:36:03;100863.47;;;12.08;63.39
83492;BME280;73661;56.120;12.302;2024-03-22T05:38:28;100873.09;;;12.23;63.87
83492;BME280;73661;56.120;12.302;2024-03-22T05:40:54;100861.81;;;12.41;62.63
83492;BME280;73661;56.120;12.302;2024-03-22T05:43:20;100854.84;;;12.58;63.20
83492;BME280;73661;56.120;12.302;2024-03-22T05:45:45;100850.47;;;12.37;63.65
83492;BME280;73661;56.120;12.302;2024-03-22T05:48:11;100850.38;;;12.02;64.25
83492;BME280;73661;56.120;12.302;2024-03-22T05:50:37;100845.16;;;12.08;64.37
83492;BME280;73661;56.120;12.302;2024-03-22T05:53:03;100833.88;;;12.24;63.54
83492;BME280;73661;56.120;12.302;2024-03-22T05:55:28;100833.88;;;12.31;63.41
83492;BME280;73661;56.120;12.302;2024-03-22T05:57:56;100823.41;;;12.24;63.84
83492;BME280;73661;56.120;12.302;2024-03-22T06:00:22;100824.28;;;12.33;64.10
83492;BME280;73661;56.120;12.302;2024-03-22T06:02:48;100826.91;;;12.48;62.44
83492;BME280;73661;56.120;12.302;2024-03-22T06:05:13;100830.38;;;12.56;62.86
83492;BME280;73661;56.120;12.302;2024-03-22T06:07:39;100831.25;;;12.34;62.89
83492;BME280;73661;56.120;12.302;2024-03-22T06:10:08;100843.50;;;12.51;63.04
83492;BME280;73661;56.120;12.302;2024-03-22T06:12:35;100830.38;;;12.80;62.37
83492;BME280;73661;56.120;12.302;2024-03-22T06:15:02;100815.56;;;12.32;63.73
83492;BME280;73661;56.120;12.302;2024-03-22T06:17:32;100816.41;;;12.63;63.23
83492;BME280;73661;56.120;12.302;2024-03-22T06:19:59;100808.53;;;12.83;62.37
83492;BME280;73661;56.120;12.302;2024-03-22T06:22:30;100810.34;;;12.58;62.96
83492;BME280;73661;56.120;12.302;2024-03-22T06:24:55;100808.56;;;12.34;63.56
83492;BME280;73661;56.120;12.302;2024-03-22T06:27:21;100821.69;;;12.51;63.87
83492;BME280;73661;56.120;12.302;2024-03-22T06:29:47;100817.28;;;12.91;62.22
83492;BME280;73661;56.120;12.302;2024-03-22T06:32:12;100805.06;;;12.63;62.97
83492;BME280;73661;56.120;12.302;2024-03-22T06:34:38;100811.19;;;12.48;64.01
83492;BME280;73661;56.120;12.302;2024-03-22T06:37:04;100811.19;;;12.48;63.78
83492;BME280;73661;56.120;12.302;2024-03-22T06:39:30;100790.91;;;13.49;60.93
83492;BME280;73661;56.120;12.302;2024-03-22T06:41:55;100778.84;;;12.92;62.17
83492;BME280;73661;56.120;12.302;2024-03-22T06:44:21;100785.75;;;13.17;61.85
83492;BME280;73661;56.120;12.302;2024-03-22T06:46:47;100778.91;;;12.72;62.96
83492;BME280;73661;56.120;12.302;2024-03-22T06:49:13;100779.72;;;12.94;61.90
83492;BME280;73661;56.120;12.302;2024-03-22T06:51:38;100777.03;;;13.15;61.58
83492;BME280;73661;56.120;12.302;2024-03-22T06:54:04;100769.09;;;13.43;61.85
83492;BME280;73661;56.120;12.302;2024-03-22T06:56:30;100770.03;;;13.16;62.13
83492;BME280;73661;56.120;12.302;2024-03-22T06:58:56;100770.84;;;13.41;61.56
83492;BME280;73661;56.120;12.302;2024-03-22T07:01:22;100771.75;;;13.38;61.61
83492;BME280;73661;56.120;12.302;2024-03-22T07:03:47;100770.00;;;13.39;61.01
83492;BME280;73661;56.120;12.302;2024-03-22T07:06:16;100752.38;;;13.63;60.74
83492;BME280;73661;56.120;12.302;2024-03-22T07:08:42;100755.84;;;13.67;60.62
83492;BME280;73661;56.120;12.302;2024-03-22T07:11:07;100750.84;;;13.21;61.86
83492;BME280;73661;56.120;12.302;2024-03-22T07:13:34;100766.53;;;13.27;62.44
83492;BME280;73661;56.120;12.302;2024-03-22T07:16:00;100770.94;;;13.07;62.97
83492;BME280;73661;56.120;12.302;2024-03-22T07:18:26;100754.94;;;13.79;60.81
83492;BME280;73661;56.120;12.302;2024-03-22T07:20:51;100762.22;;;13.11;62.26
83492;BME280;73661;56.120;12.302;2024-03-22T07:23:17;100760.41;;;13.38;61.13
83492;BME280;73661;56.120;12.302;2024-03-22T07:25:43;100761.31;;;13.23;61.89
83492;BME280;73661;56.120;12.302;2024-03-22T07:28:11;100756.06;;;13.20;62.62
83492;BME280;73661;56.120;12.302;2024-03-22T07:30:37;100737.59;;;13.49;61.62
83492;BME280;73661;56.120;12.302;2024-03-22T07:33:03;100751.47;;;13.72;61.12
83492;BME280;73661;56.120;12.302;2024-03-22T07:35:29;100747.25;;;13.41;61.90
83492;BME280;73661;56.120;12.302;2024-03-22T07:37:57;100762.97;;;13.42;62.07
83492;BME280;73661;56.120;12.302;2024-03-22T07:40:22;100769.97;;;13.45;61.47
83492;BME280;73661;56.120;12.302;2024-03-22T07:42:48;100788.31;;;13.46;62.20
83492;BME280;73661;56.120;12.302;2024-03-22T07:45:14;100773.47;;;13.41;60.81
83492;BME280;73661;56.120;12.302;2024-03-22T07:47:40;100752.41;;;13.59;61.64
83492;BME280;73661;56.120;12.302;2024-03-22T07:50:08;100738.25;;;13.83;60.98
83492;BME280;73661;56.120;12.302;2024-03-22T07:52:34;100737.44;;;13.75;60.35
83492;BME280;73661;56.120;12.302;2024-03-22T07:54:59;100739.34;;;13.50;61.44
83492;BME280;73661;56.120;12.302;2024-03-22T07:57:28;100743.66;;;13.65;61.34
83492;BME280;73661;56.120;12.302;2024-03-22T07:59:57;100741.91;;;14.71;59.63
83492;BME280;73661;56.120;12.302;2024-03-22T08:02:23;100742.47;;;14.04;60.14
83492;BME280;73661;56.120;12.302;2024-03-22T08:04:49;100758.66;;;14.62;59.36
83492;BME280;73661;56.120;12.302;2024-03-22T08:07:16;100745.81;;;14.24;59.10
83492;BME280;73661;56.120;12.302;2024-03-22T08:09:41;100743.13;;;14.33;59.49
83492;BME280;73661;56.120;12.302;2024-03-22T08:12:07;100751.84;;;14.40;59.63
83492;BME280;73661;56.120;12.302;2024-03-22T08:14:33;100747.72;;;14.04;60.25
83492;BME280;73661;56.120;12.302;2024-03-22T08:16:59;100744.09;;;14.23;59.68
83492;BME280;73661;56.120;12.302;2024-03-22T08:19:24;100736.09;;;14.37;59.57
83492;BME280;73661;56.120;12.302;2024-03-22T08:21:50;100728.28;;;14.29;59.85
83492;BME280;73661;56.120;12.302;2024-03-22T08:24:18;100729.78;;;14.61;59.68
83492;BME280;73661;56.120;12.302;2024-03-22T08:26:44;100734.72;;;14.91;58.34
83492;BME280;73661;56.120;12.302;2024-03-22T08:29:13;100733.44;;;14.41;59.41
83492;BME280;73661;56.120;12.302;2024-03-22T08:31:40;100727.50;;;15.09;57.99
83492;BME280;73661;56.120;12.302;2024-03-22T08:34:08;100708.97;;;14.36;59.71
83492;BME280;73661;56.120;12.302;2024-03-22T08:36:34;100722.78;;;14.60;59.04
83492;BME280;73661;56.120;12.302;2024-03-22T08:39:00;100732.31;;;15.45;57.72
83492;BME280;73661;56.120;12.302;2024-03-22T08:41:25;100720.88;;;14.74;58.40
83492;BME280;73661;56.120;12.302;2024-03-22T08:43:51;100717.91;;;15.06;58.28
83492;BME280;73661;56.120;12.302;2024-03-22T08:46:17;100711.41;;;15.33;57.05
83492;BME280;73661;56.120;12.302;2024-03-22T08:48:42;100707.03;;;14.60;59.00
83492;BME280;73661;56.120;12.302;2024-03-22T08:51:08;100706.03;;;14.71;58.83
83492;BME280;73661;56.120;12.302;2024-03-22T08:53:34;100714.81;;;15.41;57.55
83492;BME280;73661;56.120;12.302;2024-03-22T08:56:00;100712.66;;;15.06;58.24
83492;BME280;73661;56.120;12.302;2024-03-22T08:58:26;100706.84;;;14.75;58.64
83492;BME280;73661;56.120;12.302;2024-03-22T09:00:52;100714.69;;;15.49;56.83
83492;BME280;73661;56.120;12.302;2024-03-22T09:03:17;100704.13;;;14.83;58.25
83492;BME280;73661;56.120;12.302;2024-03-22T09:05:43;100710.00;;;15.74;56.53
83492;BME280;73661;56.120;12.302;2024-03-22T09:08:09;100705.56;;;14.24;59.38
83492;BME280;73661;56.120;12.302;2024-03-22T09:10:35;100704.97;;;14.88;58.58
83492;BME280;73661;56.120;12.302;2024-03-22T09:13:00;100688.94;;;14.26;59.74
83492;BME280;73661;56.120;12.302;2024-03-22T09:15:26;100689.47;;;14.65;59.12
83492;BME280;73661;56.120;12.302;2024-03-22T09:17:52;100691.59;;;14.25;60.05
83492;BME280;73661;56.120;12.302;2024-03-22T09:20:18;100693.31;;;15.12;57.75
83492;BME280;73661;56.120;12.302;2024-03-22T09:22:44;100684.69;;;14.99;58.07
83492;BME280;73661;56.120;12.302;2024-03-22T09:25:09;100689.22;;;15.51;56.68
83492;BME280;73661;56.120;12.302;2024-03-22T09:27:35;100687.91;;;15.21;56.66
83492;BME280;73661;56.120;12.302;2024-03-22T09:30:01;100689.31;;;14.77;58.90
83492;BME280;73661;56.120;12.302;2024-03-22T09:32:29;100681.75;;;14.43;59.54
83492;BME280;73661;56.120;12.302;2024-03-22T09:34:55;100689.16;;;14.92;58.16
83492;BME280;73661;56.120;12.302;2024-03-22T09:37:21;100684.22;;;14.65;59.05
83492;BME280;73661;56.120;12.302;2024-03-22T09:39:47;100679.22;;;14.34;59.23
83492;BME280;73661;56.120;12.302;2024-03-22T09:42:17;100679.81;;;14.67;58.61
83492;BME280;73661;56.120;12.302;2024-03-22T09:44:49;100667.25;;;14.92;58.52
83492;BME280;73661;56.120;12.302;2024-03-22T09:47:17;100672.00;;;14.59;59.53
83492;BME280;73661;56.120;12.302;2024-03-22T09:49:44;100673.06;;;15.17;58.48
83492;BME280;73661;56.120;12.302;2024-03-22T09:52:13;100667.25;;;14.92;58.85
83492;BME280;73661;56.120;12.302;2024-03-22T09:54:41;100677.03;;;14.79;58.58
83492;BME280;73661;56.120;12.302;2024-03-22T09:57:11;100665.97;;;14.50;59.76
83492;BME280;73661;56.120;12.302;2024-03-22T09:59:39;100668.63;;;14.47;59.67
83492;BME280;73661;56.120;12.302;2024-03-22T10:02:13;100662.00;;;14.03;60.94
83492;BME280;73661;56.120;12.302;2024-03-22T10:04:40;100653.34;;;13.93;61.06
83492;BME280;73661;56.120;12.302;2024-03-22T10:07:06;100659.38;;;14.90;58.80
83492;BME280;73661;56.120;12.302;2024-03-22T10:09:33;100669.69;;;14.26;61.00
83492;BME280;73661;56.120;12.302;2024-03-22T10:12:00;100672.25;;;14.30;60.40
83492;BME280;73661;56.120;12.302;2024-03-22T10:14:26;100671.84;;;15.41;57.60
83492;BME280;73661;56.120;12.302;2024-03-22T10:16:53;100681.03;;;15.74;56.95
83492;BME280;73661;56.120;12.302;2024-03-22T10:19:22;100667.09;;;15.06;58.34
83492;BME280;73661;56.120;12.302;2024-03-22T10:22:05;100676.47;;;14.51;59.78
83492;BME280;73661;56.120;12.302;2024-03-22T10:24:31;100675.94;;;14.12;60.72
83492;BME280;73661;56.120;12.302;2024-03-22T10:26:59;100662.44;;;13.51;62.70
83492;BME280;73661;56.120;12.302;2024-03-22T10:29:25;100662.16;;;13.83;61.74
83492;BME280;73661;56.120;12.302;2024-03-22T10:31:52;100664.19;;;13.43;62.77
83492;BME280;73661;56.120;12.302;2024-03-22T10:34:24;100672.09;;;13.40;62.83
83492;BME280;73661;56.120;12.302;2024-03-22T10:36:50;100660.31;;;13.96;61.22
83492;BME280;73661;56.120;12.302;2024-03-22T10:39:19;100657.38;;;13.03;63.29
83492;BME280;73661;56.120;12.302;2024-03-22T10:41:45;100657.38;;;13.11;64.19
83492;BME280;73661;56.120;12.302;2024-03-22T10:44:12;100662.41;;;13.54;62.75
83492;BME280;73661;56.120;12.302;2024-03-22T10:46:45;100656.22;;;13.61;62.16
83492;BME280;73661;56.120;12.302;2024-03-22T10:49:18;100660.97;;;12.86;64.11
83492;BME280;73661;56.120;12.302;2024-03-22T10:51:58;100662.56;;;13.16;63.52
83492;BME280;73661;56.120;12.302;2024-03-22T10:54:33;100652.75;;;13.59;62.53
83492;BME280;73661;56.120;12.302;2024-03-22T10:57:01;100651.34;;;12.92;64.20
83492;BME280;73661;56.120;12.302;2024-03-22T10:59:36;100642.47;;;13.27;63.69
83492;BME280;73661;56.120;12.302;2024-03-22T11:02:03;100643.22;;;13.46;63.37
83492;BME280;73661;56.120;12.302;2024-03-22T11:04:30;100645.91;;;13.33;63.87
83492;BME280;73661;56.120;12.302;2024-03-22T11:06:59;100646.91;;;13.11;63.64
83492;BME280;73661;56.120;12.302;2024-03-22T11:09:26;100631.13;;;13.26;63.58
83492;BME280;73661;56.120;12.302;2024-03-22T11:11:54;100632.03;;;13.13;64.31
83492;BME280;73661;56.120;12.302;2024-03-22T11:14:21;100623.13;;;13.43;62.67
83492;BME280;73661;56.120;12.302;2024-03-22T11:16:47;100618.06;;;13.13;64.35
83492;BME280;73661;56.120;12.302;2024-03-22T11:19:13;100623.94;;;13.50;62.99
83492;BME280;73661;56.120;12.302;2024-03-22T11:21:39;100614.56;;;13.12;64.61
83492;BME280;73661;56.120;12.302;2024-03-22T11:24:05;100609.88;;;13.61;63.05
83492;BME280;73661;56.120;12.302;2024-03-22T11:26:32;100600.31;;;13.56;63.66
83492;BME280;73661;56.120;12.302;2024-03-22T11:28:58;100603.47;;;13.95;62.52
83492;BME280;73661;56.120;12.302;2024-03-22T11:31:24;100596.81;;;13.55;64.04
83492;BME280;73661;56.120;12.302;2024-03-22T11:33:53;100595.63;;;13.93;63.36
83492;BME280;73661;56.120;12.302;2024-03-22T11:36:20;100594.50;;;14.17;62.69
83492;BME280;73661;56.120;12.302;2024-03-22T11:38:46;100596.75;;;13.63;63.06
83492;BME280;73661;56.120;12.302;2024-03-22T11:41:23;100598.50;;;13.62;63.84
83492;BME280;73661;56.120;12.302;2024-03-22T11:43:50;100588.78;;;13.75;62.47
83492;BME280;73661;56.120;12.302;2024-03-22T11:46:17;100588.53;;;14.03;61.88
83492;BME280;73661;56.120;12.302;2024-03-22T11:48:44;100585.75;;;13.09;63.91
83492;BME280;73661;56.120;12.302;2024-03-22T11:51:10;100590.78;;;13.43;63.46
83492;BME280;73661;56.120;12.302;2024-03-22T11:53:36;100591.44;;;13.71;63.23
83492;BME280;73661;56.120;12.302;2024-03-22T11:56:03;100583.38;;;13.90;62.54
83492;BME280;73661;56.120;12.302;2024-03-22T11:58:29;100588.94;;;13.57;62.84
83492;BME280;73661;56.120;12.302;2024-03-22T12:00:57;100588.34;;;13.09;64.81
83492;BME280;73661;56.120;12.302;2024-03-22T12:03:23;100582.81;;;13.59;63.39
83492;BME280;73661;56.120;12.302;2024-03-22T12:05:49;100581.91;;;13.62;63.62
83492;BME280;73661;56.120;12.302;2024-03-22T12:08:18;100584.22;;;12.68;65.58
83492;BME280;73661;56.120;12.302;2024-03-22T12:10:44;100575.06;;;13.43;62.89
83492;BME280;73661;56.120;12.302;2024-03-22T12:13:09;100579.38;;;13.51;63.56
83492;BME280;73661;56.120;12.302;2024-03-22T12:15:35;100572.56;;;13.26;63.48
83492;BME280;73661;56.120;12.302;2024-03-22T12:18:02;100565.84;;;13.99;61.81
83492;BME280;73661;56.120;12.302;2024-03-22T12:20:28;100566.00;;;13.80;63.09
83492;BME280;73661;56.120;12.302;2024-03-22T12:22:53;100555.09;;;13.17;63.60
83492;BME280;73661;56.120;12.302;2024-03-22T12:25:19;100564.78;;;14.15;61.52
83492;BME280;73661;56.120;12.302;2024-03-22T12:27:46;100558.16;;;13.79;62.48
83492;BME280;73661;56.120;12.302;2024-03-22T12:30:13;100560.84;;;13.73;62.96
83492;BME280;73661;56.120;12.302;2024-03-22T12:32:39;100557.69;;;13.29;63.81
83492;BME280;73661;56.120;12.302;2024-03-22T12:35:05;100546.38;;;13.24;63.90
83492;BME280;73661;56.120;12.302;2024-03-22T12:37:31;100553.53;;;14.02;63.68